sensor_id;sensor_type;location;lat;lon;timestamp;P1;durP1;ratioP1;P2;durP2;ratioP2
55146;SDS011;41039;49.830;23.988;2023-02-13T00:00:34;27.65;;;12.80;;
55146;SDS011;41039;49.830;23.988;2023-02-13T00:02:59;21.73;;;11.15;;
55146;SDS011;41039;49.830;23.988;2023-02-13T00:05:25;28.25;;;11.50;;
55146;SDS011;41039;49.830;23.988;2023-02-13T00:07:50;24.17;;;11.27;;
55146;SDS011;41039;49.830;23.988;2023-02-13T00:10:15;25.58;;;12.70;;
55146;SDS011;41039;49.830;23.988;2023-02-13T00:12:41;38.00;;;14.77;;
55146;SDS011;41039;49.830;23.988;2023-02-13T00:15:06;38.70;;;16.33;;
55146;SDS011;41039;49.830;23.988;2023-02-13T00:17:32;40.60;;;16.05;;
55146;SDS011;41039;49.830;23.988;2023-02-13T00:19:57;37.88;;;16.90;;
55146;SDS011;41039;49.830;23.988;2023-02-13T00:22:22;29.70;;;12.82;;
55146;SDS011;41039;49.830;23.988;2023-02-13T00:24:48;30.52;;;14.30;;
55146;SDS011;41039;49.830;23.988;2023-02-13T00:27:13;34.15;;;17.63;;
55146;SDS011;41039;49.830;23.988;2023-02-13T00:29:38;34.33;;;16.27;;
55146;SDS011;41039;49.830;23.988;2023-02-13T00:32:04;29.77;;;13.60;;
55146;SDS011;41039;49.830;23.988;2023-02-13T00:34:29;27.98;;;14.35;;
55146;SDS011;41039;49.830;23.988;2023-02-13T00:36:54;27.63;;;12.80;;
55146;SDS011;41039;49.830;23.988;2023-02-13T00:39:20;35.38;;;14.40;;
55146;SDS011;41039;49.830;23.988;2023-02-13T00:41:45;35.63;;;17.13;;
55146;SDS011;41039;49.830;23.988;2023-02-13T00:44:10;50.03;;;17.73;;
55146;SDS011;41039;49.830;23.988;2023-02-13T00:46:35;39.53;;;15.40;;
55146;SDS011;41039;49.830;23.988;2023-02-13T00:49:02;29.45;;;14.23;;
55146;SDS011;41039;49.830;23.988;2023-02-13T00:51:28;33.50;;;14.18;;
55146;SDS011;41039;49.830;23.988;2023-02-13T00:53:53;26.42;;;13.73;;
55146;SDS011;41039;49.830;23.988;2023-02-13T00:56:18;27.65;;;12.95;;
55146;SDS011;41039;49.830;23.988;2023-02-13T00:58:43;37.05;;;15.70;;
55146;SDS011;41039;49.830;23.988;2023-02-13T01:01:09;33.40;;;15.25;;
55146;SDS011;41039;49.830;23.988;2023-02-13T01:03:34;30.02;;;15.30;;
55146;SDS011;41039;49.830;23.988;2023-02-13T01:05:59;37.38;;;16.50;;
55146;SDS011;41039;49.830;23.988;2023-02-13T01:08:24;33.83;;;15.52;;
55146;SDS011;41039;49.830;23.988;2023-02-13T01:10:52;36.60;;;14.98;;
55146;SDS011;41039;49.830;23.988;2023-02-13T01:13:18;43.22;;;17.33;;
55146;SDS011;41039;49.830;23.988;2023-02-13T01:15:43;52.42;;;19.98;;
55146;SDS011;41039;49.830;23.988;2023-02-13T01:18:09;51.25;;;19.85;;
55146;SDS011;41039;49.830;23.988;2023-02-13T01:20:36;61.80;;;24.00;;
55146;SDS011;41039;49.830;23.988;2023-02-13T01:23:01;56.88;;;22.33;;
55146;SDS011;41039;49.830;23.988;2023-02-13T01:25:26;58.15;;;21.80;;
55146;SDS011;41039;49.830;23.988;2023-02-13T01:27:52;49.30;;;19.27;;
55146;SDS011;41039;49.830;23.988;2023-02-13T01:30:17;34.15;;;15.85;;
55146;SDS011;41039;49.830;23.988;2023-02-13T01:32:43;28.98;;;13.60;;
55146;SDS011;41039;49.830;23.988;2023-02-13T01:35:09;24.48;;;13.10;;
55146;SDS011;41039;49.830;23.988;2023-02-13T01:37:35;27.33;;;12.35;;
55146;SDS011;41039;49.830;23.988;2023-02-13T01:40:01;24.33;;;11.23;;
55146;SDS011;41039;49.830;23.988;2023-02-13T01:42:27;22.08;;;11.35;;
55146;SDS011;41039;49.830;23.988;2023-02-13T01:44:57;24.20;;;12.10;;
55146;SDS011;41039;49.830;23.988;2023-02-13T01:47:32;20.52;;;11.90;;
55146;SDS011;41039;49.830;23.988;2023-02-13T01:50:45;22.48;;;11.70;;
55146;SDS011;41039;49.830;23.988;2023-02-13T01:52:49;21.50;;;11.55;;
55146;SDS011;41039;49.830;23.988;2023-02-13T01:55:16;24.50;;;12.20;;
55146;SDS011;41039;49.830;23.988;2023-02-13T01:57:41;26.77;;;13.43;;
55146;SDS011;41039;49.830;23.988;2023-02-13T02:00:10;35.25;;;15.88;;
55146;SDS011;41039;49.830;23.988;2023-02-13T02:02:36;48.33;;;18.92;;
55146;SDS011;41039;49.830;23.988;2023-02-13T02:05:03;42.13;;;20.38;;
55146;SDS011;41039;49.830;23.988;2023-02-13T02:07:29;51.13;;;20.42;;
55146;SDS011;41039;49.830;23.988;2023-02-13T02:09:57;48.03;;;18.52;;
55146;SDS011;41039;49.830;23.988;2023-02-13T02:12:36;44.17;;;18.05;;
55146;SDS011;41039;49.830;23.988;2023-02-13T02:15:03;38.33;;;18.33;;
55146;SDS011;41039;49.830;23.988;2023-02-13T02:17:29;41.05;;;18.63;;
55146;SDS011;41039;49.830;23.988;2023-02-13T02:23:05;35.22;;;14.68;;
55146;SDS011;41039;49.830;23.988;2023-02-13T02:30:47;25.65;;;12.85;;
55146;SDS011;41039;49.830;23.988;2023-02-13T02:33:25;24.80;;;11.95;;
55146;SDS011;41039;49.830;23.988;2023-02-13T02:41:38;21.75;;;10.85;;
55146;SDS011;41039;49.830;23.988;2023-02-13T02:49:13;21.75;;;11.25;;
55146;SDS011;41039;49.830;23.988;2023-02-13T02:52:06;21.13;;;10.65;;
55146;SDS011;41039;49.830;23.988;2023-02-13T02:54:37;22.33;;;10.63;;
55146;SDS011;41039;49.830;23.988;2023-02-13T02:57:26;19.48;;;10.68;;
55146;SDS011;41039;49.830;23.988;2023-02-13T03:00:14;19.42;;;10.30;;
55146;SDS011;41039;49.830;23.988;2023-02-13T03:02:59;21.65;;;11.77;;
55146;SDS011;41039;49.830;23.988;2023-02-13T03:05:43;21.48;;;11.48;;
55146;SDS011;41039;49.830;23.988;2023-02-13T03:08:28;19.98;;;10.30;;
55146;SDS011;41039;49.830;23.988;2023-02-13T03:11:12;25.38;;;12.43;;
55146;SDS011;41039;49.830;23.988;2023-02-13T03:13:56;26.20;;;11.98;;
55146;SDS011;41039;49.830;23.988;2023-02-13T03:16:22;21.92;;;11.93;;
55146;SDS011;41039;49.830;23.988;2023-02-13T03:19:18;20.02;;;10.63;;
55146;SDS011;41039;49.830;23.988;2023-02-13T03:22:16;20.65;;;11.18;;
55146;SDS011;41039;49.830;23.988;2023-02-13T03:27:33;21.88;;;12.48;;
55146;SDS011;41039;49.830;23.988;2023-02-13T03:35:42;23.17;;;12.50;;
55146;SDS011;41039;49.830;23.988;2023-02-13T03:38:34;20.00;;;9.52;;
55146;SDS011;41039;49.830;23.988;2023-02-13T03:41:03;23.70;;;13.60;;
55146;SDS011;41039;49.830;23.988;2023-02-13T03:43:46;27.35;;;11.48;;
55146;SDS011;41039;49.830;23.988;2023-02-13T03:46:14;17.58;;;10.30;;
55146;SDS011;41039;49.830;23.988;2023-02-13T03:48:41;21.08;;;10.90;;
55146;SDS011;41039;49.830;23.988;2023-02-13T03:51:28;19.80;;;11.50;;
55146;SDS011;41039;49.830;23.988;2023-02-13T03:53:57;19.50;;;10.68;;
55146;SDS011;41039;49.830;23.988;2023-02-13T03:56:23;18.02;;;10.18;;
55146;SDS011;41039;49.830;23.988;2023-02-13T03:59:09;25.40;;;12.43;;
55146;SDS011;41039;49.830;23.988;2023-02-13T04:04:21;21.02;;;10.68;;
55146;SDS011;41039;49.830;23.988;2023-02-13T04:06:59;22.95;;;12.35;;
55146;SDS011;41039;49.830;23.988;2023-02-13T04:09:25;24.08;;;10.95;;
55146;SDS011;41039;49.830;23.988;2023-02-13T04:17:08;26.30;;;12.13;;
55146;SDS011;41039;49.830;23.988;2023-02-13T04:19:34;21.92;;;12.40;;
55146;SDS011;41039;49.830;23.988;2023-02-13T04:22:00;26.05;;;13.32;;
55146;SDS011;41039;49.830;23.988;2023-02-13T04:24:26;21.77;;;11.98;;
55146;SDS011;41039;49.830;23.988;2023-02-13T04:26:51;21.83;;;11.45;;
55146;SDS011;41039;49.830;23.988;2023-02-13T04:29:17;22.48;;;11.57;;
55146;SDS011;41039;49.830;23.988;2023-02-13T04:31:42;24.05;;;12.18;;
55146;SDS011;41039;49.830;23.988;2023-02-13T04:34:08;20.90;;;11.93;;
55146;SDS011;41039;49.830;23.988;2023-02-13T04:36:33;23.25;;;11.77;;
55146;SDS011;41039;49.830;23.988;2023-02-13T04:38:58;25.10;;;12.30;;
55146;SDS011;41039;49.830;23.988;2023-02-13T04:41:23;23.10;;;12.05;;
55146;SDS011;41039;49.830;23.988;2023-02-13T04:43:49;24.33;;;12.40;;
55146;SDS011;41039;49.830;23.988;2023-02-13T04:46:16;23.52;;;12.05;;
55146;SDS011;41039;49.830;23.988;2023-02-13T04:48:41;20.55;;;11.10;;
55146;SDS011;41039;49.830;23.988;2023-02-13T04:51:06;24.52;;;12.20;;
55146;SDS011;41039;49.830;23.988;2023-02-13T04:53:32;30.42;;;12.82;;
55146;SDS011;41039;49.830;23.988;2023-02-13T04:55:57;25.08;;;12.43;;
55146;SDS011;41039;49.830;23.988;2023-02-13T04:58:22;21.42;;;10.98;;
55146;SDS011;41039;49.830;23.988;2023-02-13T05:00:47;24.60;;;12.93;;
55146;SDS011;41039;49.830;23.988;2023-02-13T05:03:13;22.05;;;12.60;;
55146;SDS011;41039;49.830;23.988;2023-02-13T05:05:38;22.60;;;11.35;;
55146;SDS011;41039;49.830;23.988;2023-02-13T05:08:04;22.25;;;11.65;;
55146;SDS011;41039;49.830;23.988;2023-02-13T05:10:30;21.30;;;10.13;;
55146;SDS011;41039;49.830;23.988;2023-02-13T05:12:55;21.95;;;12.57;;
55146;SDS011;41039;49.830;23.988;2023-02-13T05:15:21;20.83;;;11.45;;
55146;SDS011;41039;49.830;23.988;2023-02-13T05:17:47;20.02;;;11.10;;
55146;SDS011;41039;49.830;23.988;2023-02-13T05:20:13;23.38;;;12.23;;
55146;SDS011;41039;49.830;23.988;2023-02-13T05:22:45;24.23;;;12.02;;
55146;SDS011;41039;49.830;23.988;2023-02-13T05:25:29;22.88;;;10.93;;
55146;SDS011;41039;49.830;23.988;2023-02-13T05:27:54;23.30;;;11.60;;
55146;SDS011;41039;49.830;23.988;2023-02-13T05:30:19;22.48;;;11.77;;
55146;SDS011;41039;49.830;23.988;2023-02-13T05:32:45;24.63;;;13.02;;
55146;SDS011;41039;49.830;23.988;2023-02-13T05:35:10;24.42;;;12.32;;
55146;SDS011;41039;49.830;23.988;2023-02-13T05:37:35;21.10;;;11.75;;
55146;SDS011;41039;49.830;23.988;2023-02-13T05:40:01;25.23;;;12.13;;
55146;SDS011;41039;49.830;23.988;2023-02-13T05:42:26;27.75;;;13.82;;
55146;SDS011;41039;49.830;23.988;2023-02-13T05:44:51;23.70;;;11.98;;
55146;SDS011;41039;49.830;23.988;2023-02-13T05:47:16;23.85;;;13.63;;
55146;SDS011;41039;49.830;23.988;2023-02-13T05:49:41;27.58;;;15.57;;
55146;SDS011;41039;49.830;23.988;2023-02-13T05:52:07;20.95;;;12.38;;
55146;SDS011;41039;49.830;23.988;2023-02-13T05:54:32;25.90;;;12.45;;
55146;SDS011;41039;49.830;23.988;2023-02-13T05:56:57;25.00;;;12.48;;
55146;SDS011;41039;49.830;23.988;2023-02-13T05:59:22;28.80;;;13.85;;
55146;SDS011;41039;49.830;23.988;2023-02-13T06:01:47;25.73;;;12.80;;
55146;SDS011;41039;49.830;23.988;2023-02-13T06:04:13;26.60;;;13.73;;
55146;SDS011;41039;49.830;23.988;2023-02-13T06:06:38;28.45;;;14.30;;
55146;SDS011;41039;49.830;23.988;2023-02-13T06:09:03;26.23;;;12.85;;
55146;SDS011;41039;49.830;23.988;2023-02-13T06:11:28;26.52;;;13.30;;
55146;SDS011;41039;49.830;23.988;2023-02-13T06:13:54;27.17;;;14.00;;
55146;SDS011;41039;49.830;23.988;2023-02-13T06:16:19;27.02;;;13.77;;
55146;SDS011;41039;49.830;23.988;2023-02-13T06:18:44;31.80;;;15.00;;
55146;SDS011;41039;49.830;23.988;2023-02-13T06:21:09;25.35;;;13.82;;
55146;SDS011;41039;49.830;23.988;2023-02-13T06:23:35;33.28;;;17.90;;
55146;SDS011;41039;49.830;23.988;2023-02-13T06:26:04;35.30;;;15.93;;
55146;SDS011;41039;49.830;23.988;2023-02-13T06:28:29;34.38;;;16.73;;
55146;SDS011;41039;49.830;23.988;2023-02-13T06:30:54;28.83;;;15.35;;
55146;SDS011;41039;49.830;23.988;2023-02-13T06:33:20;30.10;;;16.00;;
55146;SDS011;41039;49.830;23.988;2023-02-13T06:35:45;29.40;;;14.63;;
55146;SDS011;41039;49.830;23.988;2023-02-13T06:38:10;35.28;;;17.25;;
55146;SDS011;41039;49.830;23.988;2023-02-13T06:40:35;33.65;;;16.73;;
55146;SDS011;41039;49.830;23.988;2023-02-13T06:43:01;32.28;;;16.88;;
55146;SDS011;41039;49.830;23.988;2023-02-13T06:45:26;28.83;;;15.55;;
55146;SDS011;41039;49.830;23.988;2023-02-13T06:47:51;34.75;;;17.40;;
55146;SDS011;41039;49.830;23.988;2023-02-13T06:50:17;26.25;;;13.75;;
55146;SDS011;41039;49.830;23.988;2023-02-13T06:52:49;31.85;;;16.60;;
55146;SDS011;41039;49.830;23.988;2023-02-13T06:55:15;28.08;;;14.32;;
55146;SDS011;41039;49.830;23.988;2023-02-13T06:57:41;29.70;;;16.00;;
55146;SDS011;41039;49.830;23.988;2023-02-13T07:00:06;34.83;;;16.85;;
55146;SDS011;41039;49.830;23.988;2023-02-13T07:02:31;36.42;;;16.42;;
55146;SDS011;41039;49.830;23.988;2023-02-13T07:04:57;42.03;;;17.40;;
55146;SDS011;41039;49.830;23.988;2023-02-13T07:07:22;29.20;;;16.25;;
55146;SDS011;41039;49.830;23.988;2023-02-13T07:09:47;34.72;;;18.33;;
55146;SDS011;41039;49.830;23.988;2023-02-13T07:12:13;41.40;;;19.33;;
55146;SDS011;41039;49.830;23.988;2023-02-13T07:14:38;47.70;;;20.50;;
55146;SDS011;41039;49.830;23.988;2023-02-13T07:17:03;39.17;;;18.90;;
55146;SDS011;41039;49.830;23.988;2023-02-13T07:19:28;36.92;;;19.52;;
55146;SDS011;41039;49.830;23.988;2023-02-13T07:21:54;48.20;;;22.52;;
55146;SDS011;41039;49.830;23.988;2023-02-13T07:24:19;38.58;;;19.95;;
55146;SDS011;41039;49.830;23.988;2023-02-13T07:26:44;44.20;;;23.42;;
55146;SDS011;41039;49.830;23.988;2023-02-13T07:29:09;42.33;;;22.80;;
55146;SDS011;41039;49.830;23.988;2023-02-13T07:31:34;44.22;;;21.52;;
55146;SDS011;41039;49.830;23.988;2023-02-13T07:34:00;39.63;;;20.77;;
55146;SDS011;41039;49.830;23.988;2023-02-13T07:36:26;34.05;;;19.85;;
55146;SDS011;41039;49.830;23.988;2023-02-13T07:38:51;31.55;;;17.85;;
55146;SDS011;41039;49.830;23.988;2023-02-13T07:41:16;36.42;;;19.70;;
55146;SDS011;41039;49.830;23.988;2023-02-13T07:43:41;31.65;;;17.63;;
55146;SDS011;41039;49.830;23.988;2023-02-13T07:46:07;30.40;;;15.27;;
55146;SDS011;41039;49.830;23.988;2023-02-13T07:48:33;34.20;;;16.15;;
55146;SDS011;41039;49.830;23.988;2023-02-13T07:50:58;44.60;;;18.20;;
55146;SDS011;41039;49.830;23.988;2023-02-13T07:53:24;32.88;;;16.67;;
55146;SDS011;41039;49.830;23.988;2023-02-13T07:55:49;32.90;;;17.33;;
55146;SDS011;41039;49.830;23.988;2023-02-13T07:58:14;30.60;;;17.52;;
55146;SDS011;41039;49.830;23.988;2023-02-13T08:00:39;31.27;;;16.63;;
55146;SDS011;41039;49.830;23.988;2023-02-13T08:03:05;29.38;;;15.07;;
55146;SDS011;41039;49.830;23.988;2023-02-13T08:05:30;25.88;;;14.43;;
55146;SDS011;41039;49.830;23.988;2023-02-13T08:07:56;31.15;;;16.92;;
55146;SDS011;41039;49.830;23.988;2023-02-13T08:10:21;31.08;;;16.80;;
55146;SDS011;41039;49.830;23.988;2023-02-13T08:15:30;27.88;;;15.55;;
55146;SDS011;41039;49.830;23.988;2023-02-13T08:17:55;30.27;;;14.68;;
55146;SDS011;41039;49.830;23.988;2023-02-13T08:20:21;31.08;;;16.70;;
55146;SDS011;41039;49.830;23.988;2023-02-13T08:22:46;32.42;;;15.63;;
55146;SDS011;41039;49.830;23.988;2023-02-13T08:25:11;31.70;;;17.98;;
55146;SDS011;41039;49.830;23.988;2023-02-13T08:27:37;34.40;;;17.17;;
55146;SDS011;41039;49.830;23.988;2023-02-13T08:30:02;34.13;;;15.07;;
55146;SDS011;41039;49.830;23.988;2023-02-13T08:32:28;35.33;;;18.70;;
55146;SDS011;41039;49.830;23.988;2023-02-13T08:34:53;37.97;;;18.00;;
55146;SDS011;41039;49.830;23.988;2023-02-13T08:37:18;33.17;;;17.00;;
55146;SDS011;41039;49.830;23.988;2023-02-13T08:39:43;29.80;;;15.70;;
55146;SDS011;41039;49.830;23.988;2023-02-13T08:42:08;30.02;;;15.80;;
55146;SDS011;41039;49.830;23.988;2023-02-13T08:44:34;27.90;;;14.88;;
55146;SDS011;41039;49.830;23.988;2023-02-13T08:46:59;28.38;;;14.93;;
55146;SDS011;41039;49.830;23.988;2023-02-13T08:49:31;27.52;;;14.77;;
55146;SDS011;41039;49.830;23.988;2023-02-13T08:51:56;30.30;;;14.13;;
55146;SDS011;41039;49.830;23.988;2023-02-13T08:54:21;35.03;;;18.00;;
55146;SDS011;41039;49.830;23.988;2023-02-13T08:56:46;34.60;;;15.38;;
55146;SDS011;41039;49.830;23.988;2023-02-13T08:59:12;34.28;;;16.88;;
55146;SDS011;41039;49.830;23.988;2023-02-13T09:01:37;38.40;;;18.02;;
55146;SDS011;41039;49.830;23.988;2023-02-13T09:04:02;47.78;;;19.23;;
55146;SDS011;41039;49.830;23.988;2023-02-13T09:06:27;40.15;;;18.02;;
55146;SDS011;41039;49.830;23.988;2023-02-13T09:08:53;41.10;;;17.70;;
55146;SDS011;41039;49.830;23.988;2023-02-13T09:11:18;51.47;;;20.33;;
55146;SDS011;41039;49.830;23.988;2023-02-13T09:13:44;40.47;;;17.05;;
55146;SDS011;41039;49.830;23.988;2023-02-13T09:16:09;42.72;;;17.48;;
55146;SDS011;41039;49.830;23.988;2023-02-13T09:18:35;40.92;;;18.05;;
55146;SDS011;41039;49.830;23.988;2023-02-13T09:21:04;35.95;;;17.38;;
55146;SDS011;41039;49.830;23.988;2023-02-13T09:23:30;43.17;;;17.88;;
55146;SDS011;41039;49.830;23.988;2023-02-13T09:25:59;48.35;;;19.77;;
55146;SDS011;41039;49.830;23.988;2023-02-13T09:28:25;45.72;;;18.27;;
55146;SDS011;41039;49.830;23.988;2023-02-13T09:30:50;56.15;;;22.50;;
55146;SDS011;41039;49.830;23.988;2023-02-13T09:33:15;52.58;;;20.63;;
55146;SDS011;41039;49.830;23.988;2023-02-13T09:35:40;57.15;;;25.17;;
55146;SDS011;41039;49.830;23.988;2023-02-13T09:38:07;61.40;;;23.00;;
55146;SDS011;41039;49.830;23.988;2023-02-13T09:40:36;65.57;;;24.42;;
55146;SDS011;41039;49.830;23.988;2023-02-13T09:48:34;55.67;;;21.95;;
55146;SDS011;41039;49.830;23.988;2023-02-13T09:50:58;46.55;;;21.42;;
55146;SDS011;41039;49.830;23.988;2023-02-13T09:53:24;48.55;;;21.88;;
55146;SDS011;41039;49.830;23.988;2023-02-13T09:55:54;50.63;;;23.20;;
55146;SDS011;41039;49.830;23.988;2023-02-13T09:58:31;54.88;;;22.23;;
55146;SDS011;41039;49.830;23.988;2023-02-13T10:00:58;54.58;;;22.35;;
55146;SDS011;41039;49.830;23.988;2023-02-13T10:03:27;51.33;;;23.67;;
55146;SDS011;41039;49.830;23.988;2023-02-13T10:11:02;54.33;;;23.17;;
55146;SDS011;41039;49.830;23.988;2023-02-13T10:21:04;52.50;;;25.73;;
55146;SDS011;41039;49.830;23.988;2023-02-13T10:23:45;66.22;;;28.17;;
55146;SDS011;41039;49.830;23.988;2023-02-13T10:26:21;55.38;;;25.45;;
55146;SDS011;41039;49.830;23.988;2023-02-13T10:28:50;49.13;;;22.73;;
55146;SDS011;41039;49.830;23.988;2023-02-13T10:31:38;43.08;;;20.85;;
55146;SDS011;41039;49.830;23.988;2023-02-13T10:34:04;40.80;;;21.67;;
55146;SDS011;41039;49.830;23.988;2023-02-13T10:36:36;44.05;;;20.33;;
55146;SDS011;41039;49.830;23.988;2023-02-13T10:49:19;48.63;;;23.08;;
55146;SDS011;41039;49.830;23.988;2023-02-13T10:51:49;43.20;;;22.35;;
55146;SDS011;41039;49.830;23.988;2023-02-13T10:56:45;41.15;;;21.02;;
55146;SDS011;41039;49.830;23.988;2023-02-13T11:02:18;37.35;;;18.27;;
55146;SDS011;41039;49.830;23.988;2023-02-13T11:04:36;40.80;;;20.33;;
55146;SDS011;41039;49.830;23.988;2023-02-13T11:07:03;42.40;;;21.77;;
55146;SDS011;41039;49.830;23.988;2023-02-13T11:09:32;38.00;;;18.60;;
55146;SDS011;41039;49.830;23.988;2023-02-13T11:12:21;38.45;;;19.17;;
55146;SDS011;41039;49.830;23.988;2023-02-13T11:14:52;34.25;;;20.33;;
55146;SDS011;41039;49.830;23.988;2023-02-13T11:17:18;35.67;;;19.15;;
55146;SDS011;41039;49.830;23.988;2023-02-13T11:19:57;37.50;;;19.77;;
55146;SDS011;41039;49.830;23.988;2023-02-13T11:25:02;38.15;;;20.00;;
55146;SDS011;41039;49.830;23.988;2023-02-13T11:27:32;40.65;;;21.27;;
55146;SDS011;41039;49.830;23.988;2023-02-13T11:30:05;36.05;;;19.33;;
55146;SDS011;41039;49.830;23.988;2023-02-13T11:32:32;33.30;;;18.08;;
55146;SDS011;41039;49.830;23.988;2023-02-13T11:34:59;31.42;;;17.65;;
55146;SDS011;41039;49.830;23.988;2023-02-13T11:37:40;32.58;;;17.73;;
55146;SDS011;41039;49.830;23.988;2023-02-13T11:40:20;33.83;;;17.95;;
55146;SDS011;41039;49.830;23.988;2023-02-13T11:42:50;34.00;;;18.45;;
55146;SDS011;41039;49.830;23.988;2023-02-13T11:45:19;36.42;;;19.58;;
55146;SDS011;41039;49.830;23.988;2023-02-13T11:47:45;33.42;;;20.27;;
55146;SDS011;41039;49.830;23.988;2023-02-13T11:52:55;37.70;;;18.88;;
55146;SDS011;41039;49.830;23.988;2023-02-13T12:00:39;36.53;;;19.75;;
55146;SDS011;41039;49.830;23.988;2023-02-13T12:08:29;45.17;;;23.30;;
55146;SDS011;41039;49.830;23.988;2023-02-13T12:10:56;43.65;;;25.02;;
55146;SDS011;41039;49.830;23.988;2023-02-13T12:13:32;39.63;;;21.40;;
55146;SDS011;41039;49.830;23.988;2023-02-13T12:16:03;40.80;;;22.30;;
55146;SDS011;41039;49.830;23.988;2023-02-13T12:18:31;36.30;;;20.60;;
55146;SDS011;41039;49.830;23.988;2023-02-13T12:28:45;37.78;;;20.65;;
55146;SDS011;41039;49.830;23.988;2023-02-13T12:36:20;39.70;;;20.75;;
55146;SDS011;41039;49.830;23.988;2023-02-13T12:41:20;39.65;;;20.83;;
55146;SDS011;41039;49.830;23.988;2023-02-13T12:44:07;39.75;;;21.83;;
55146;SDS011;41039;49.830;23.988;2023-02-13T12:46:39;41.00;;;21.10;;
55146;SDS011;41039;49.830;23.988;2023-02-13T12:57:05;48.60;;;26.10;;
55146;SDS011;41039;49.830;23.988;2023-02-13T13:10:34;56.25;;;29.67;;
55146;SDS011;41039;49.830;23.988;2023-02-13T13:18:40;58.35;;;27.95;;
55146;SDS011;41039;49.830;23.988;2023-02-13T13:28:37;48.90;;;26.80;;
55146;SDS011;41039;49.830;23.988;2023-02-13T13:31:03;53.13;;;28.13;;
55146;SDS011;41039;49.830;23.988;2023-02-13T13:33:29;44.25;;;24.17;;
55146;SDS011;41039;49.830;23.988;2023-02-13T13:40:57;47.30;;;26.05;;
55146;SDS011;41039;49.830;23.988;2023-02-13T13:48:45;45.22;;;23.13;;
55146;SDS011;41039;49.830;23.988;2023-02-13T13:51:15;45.22;;;23.30;;
55146;SDS011;41039;49.830;23.988;2023-02-13T13:56:25;45.38;;;23.73;;
55146;SDS011;41039;49.830;23.988;2023-02-13T13:58:50;43.63;;;24.75;;
55146;SDS011;41039;49.830;23.988;2023-02-13T14:01:23;39.63;;;24.15;;
55146;SDS011;41039;49.830;23.988;2023-02-13T14:03:49;48.63;;;27.38;;
55146;SDS011;41039;49.830;23.988;2023-02-13T14:06:16;52.20;;;29.52;;
55146;SDS011;41039;49.830;23.988;2023-02-13T14:13:48;48.05;;;25.73;;
55146;SDS011;41039;49.830;23.988;2023-02-13T14:16:19;52.25;;;27.58;;
55146;SDS011;41039;49.830;23.988;2023-02-13T14:18:59;48.75;;;27.42;;
55146;SDS011;41039;49.830;23.988;2023-02-13T14:21:25;43.92;;;23.92;;
55146;SDS011;41039;49.830;23.988;2023-02-13T14:23:50;47.75;;;21.70;;
55146;SDS011;41039;49.830;23.988;2023-02-13T14:28:53;40.70;;;21.98;;
55146;SDS011;41039;49.830;23.988;2023-02-13T14:31:27;36.17;;;19.20;;
55146;SDS011;41039;49.830;23.988;2023-02-13T14:33:53;36.95;;;20.20;;
55146;SDS011;41039;49.830;23.988;2023-02-13T14:36:20;36.42;;;20.63;;
55146;SDS011;41039;49.830;23.988;2023-02-13T14:38:54;32.03;;;18.30;;
55146;SDS011;41039;49.830;23.988;2023-02-13T14:44:03;40.88;;;21.88;;
55146;SDS011;41039;49.830;23.988;2023-02-13T14:46:31;44.42;;;23.27;;
55146;SDS011;41039;49.830;23.988;2023-02-13T14:51:25;43.20;;;22.58;;
55146;SDS011;41039;49.830;23.988;2023-02-13T14:54:03;34.33;;;19.40;;
55146;SDS011;41039;49.830;23.988;2023-02-13T14:56:29;30.83;;;18.45;;
55146;SDS011;41039;49.830;23.988;2023-02-13T15:01:33;30.60;;;16.45;;
55146;SDS011;41039;49.830;23.988;2023-02-13T15:04:05;33.03;;;18.35;;
55146;SDS011;41039;49.830;23.988;2023-02-13T15:06:41;30.42;;;17.30;;
55146;SDS011;41039;49.830;23.988;2023-02-13T15:09:43;28.90;;;17.05;;
55146;SDS011;41039;49.830;23.988;2023-02-13T15:11:59;29.85;;;15.52;;
55146;SDS011;41039;49.830;23.988;2023-02-13T15:14:34;28.13;;;17.58;;
55146;SDS011;41039;49.830;23.988;2023-02-13T15:17:15;24.50;;;14.35;;
55146;SDS011;41039;49.830;23.988;2023-02-13T15:19:43;24.63;;;14.27;;
55146;SDS011;41039;49.830;23.988;2023-02-13T15:22:14;26.38;;;15.25;;
55146;SDS011;41039;49.830;23.988;2023-02-13T15:24:44;26.83;;;14.82;;
55146;SDS011;41039;49.830;23.988;2023-02-13T15:27:14;25.98;;;15.18;;
55146;SDS011;41039;49.830;23.988;2023-02-13T15:29:51;25.15;;;14.73;;
55146;SDS011;41039;49.830;23.988;2023-02-13T15:32:18;29.30;;;14.98;;
55146;SDS011;41039;49.830;23.988;2023-02-13T15:34:45;25.55;;;14.80;;
55146;SDS011;41039;49.830;23.988;2023-02-13T15:37:19;24.38;;;13.88;;
55146;SDS011;41039;49.830;23.988;2023-02-13T15:39:44;31.67;;;14.98;;
55146;SDS011;41039;49.830;23.988;2023-02-13T15:42:09;23.52;;;13.05;;
55146;SDS011;41039;49.830;23.988;2023-02-13T15:44:36;21.73;;;13.70;;
55146;SDS011;41039;49.830;23.988;2023-02-13T15:47:03;26.30;;;14.57;;
55146;SDS011;41039;49.830;23.988;2023-02-13T15:49:30;25.13;;;12.20;;
55146;SDS011;41039;49.830;23.988;2023-02-13T15:52:02;24.08;;;14.48;;
55146;SDS011;41039;49.830;23.988;2023-02-13T15:54:30;25.92;;;13.45;;
55146;SDS011;41039;49.830;23.988;2023-02-13T15:56:59;25.35;;;15.02;;
55146;SDS011;41039;49.830;23.988;2023-02-13T15:59:26;24.52;;;14.65;;
55146;SDS011;41039;49.830;23.988;2023-02-13T16:01:52;27.77;;;14.77;;
55146;SDS011;41039;49.830;23.988;2023-02-13T16:04:18;26.63;;;14.77;;
55146;SDS011;41039;49.830;23.988;2023-02-13T16:06:44;33.25;;;17.33;;
55146;SDS011;41039;49.830;23.988;2023-02-13T16:14:42;28.85;;;15.40;;
55146;SDS011;41039;49.830;23.988;2023-02-13T16:17:14;29.55;;;15.80;;
55146;SDS011;41039;49.830;23.988;2023-02-13T16:19:43;24.85;;;14.07;;
55146;SDS011;41039;49.830;23.988;2023-02-13T16:24:54;24.50;;;12.80;;
55146;SDS011;41039;49.830;23.988;2023-02-13T16:27:25;23.80;;;13.90;;
55146;SDS011;41039;49.830;23.988;2023-02-13T16:29:53;22.73;;;12.48;;
55146;SDS011;41039;49.830;23.988;2023-02-13T16:32:22;24.02;;;14.32;;
55146;SDS011;41039;49.830;23.988;2023-02-13T16:34:50;24.08;;;13.10;;
55146;SDS011;41039;49.830;23.988;2023-02-13T16:37:25;22.05;;;12.98;;
55146;SDS011;41039;49.830;23.988;2023-02-13T16:39:50;22.50;;;12.60;;
55146;SDS011;41039;49.830;23.988;2023-02-13T16:42:16;22.38;;;12.65;;
55146;SDS011;41039;49.830;23.988;2023-02-13T16:44:43;25.42;;;12.57;;
55146;SDS011;41039;49.830;23.988;2023-02-13T16:47:19;25.45;;;12.93;;
55146;SDS011;41039;49.830;23.988;2023-02-13T16:49:55;25.60;;;13.77;;
55146;SDS011;41039;49.830;23.988;2023-02-13T16:52:21;24.42;;;13.32;;
55146;SDS011;41039;49.830;23.988;2023-02-13T16:54:57;24.38;;;13.00;;
55146;SDS011;41039;49.830;23.988;2023-02-13T16:57:24;21.63;;;12.50;;
55146;SDS011;41039;49.830;23.988;2023-02-13T16:59:54;28.02;;;13.55;;
55146;SDS011;41039;49.830;23.988;2023-02-13T17:07:30;28.27;;;15.75;;
55146;SDS011;41039;49.830;23.988;2023-02-13T17:09:59;33.28;;;17.60;;
55146;SDS011;41039;49.830;23.988;2023-02-13T17:12:25;34.40;;;17.98;;